Time;durP1;ratioP1;P1;durP2;ratioP2;P2;SDS_P1;SDS_P2;PMS_P1;PMS_P2;Temp;Humidity;BMP_temperature;BMP_pressure;BME280_temperature;BME280_humidity;BME280_pressure;Samples;Min_cycle;Max_cycle;Signal;HPM_P1;HPM_P2
2021/07/23 00:00:25;;;;;;;11.30;10.10;;;19.70;1.00;;;;;;4924768;29;20467;-72
2021/07/23 00:02:54;;;;;;;12.47;10.00;;;19.70;1.00;;;;;;4927187;29;20823;-73
2021/07/23 00:05:21;;;;;;;15.47;10.37;;;19.60;1.00;;;;;;4926994;29;20461;-72
2021/07/23 00:07:48;;;;;;;11.80;10.27;;;19.60;1.00;;;;;;4926123;29;20488;-72
2021/07/23 00:10:16;;;;;;;16.77;10.90;;;19.50;1.00;;;;;;4926656;29;20471;-72
2021/07/23 00:12:44;;;;;;;13.40;10.70;;;19.50;1.00;;;;;;4926124;29;20524;-72
2021/07/23 00:15:11;;;;;;;17.77;11.80;;;19.50;1.00;;;;;;4926403;29;20469;-72
2021/07/23 00:17:38;;;;;;;12.07;10.67;;;19.50;1.00;;;;;;4925848;29;20461;-72
2021/07/23 00:20:09;;;;;;;13.07;10.10;;;19.40;1.00;;;;;;4926441;29;20507;-72
2021/07/23 00:22:36;;;;;;;14.20;10.77;;;19.40;1.00;;;;;;4926356;29;20837;-72
2021/07/23 00:25:02;;;;;;;18.33;10.10;;;19.40;1.00;;;;;;4926091;29;20894;-72
2021/07/23 00:27:29;;;;;;;16.70;11.40;;;19.40;1.00;;;;;;4926305;29;20492;-72
2021/07/23 00:29:57;;;;;;;18.30;10.90;;;19.40;1.00;;;;;;4926127;29;20531;-72
2021/07/23 00:32:24;;;;;;;14.70;10.03;;;19.30;1.00;;;;;;4926979;29;20456;-71
2021/07/23 00:34:51;;;;;;;14.43;10.10;;;19.30;1.00;;;;;;4925896;29;20468;-72
2021/07/23 00:37:20;;;;;;;13.70;11.07;;;19.30;1.00;;;;;;4926786;29;20469;-72
2021/07/23 00:39:48;;;;;;;14.40;10.47;;;19.30;1.00;;;;;;4926244;29;20461;-71
2021/07/23 00:42:15;;;;;;;14.87;10.93;;;19.30;1.00;;;;;;4927292;29;20465;-70
2021/07/23 00:44:41;;;;;;;13.40;10.33;;;19.30;1.00;;;;;;4926011;29;20528;-70
2021/07/23 00:47:09;;;;;;;16.33;10.70;;;19.30;1.00;;;;;;4926924;29;20461;-70
2021/07/23 00:49:36;;;;;;;17.37;12.17;;;19.20;1.00;;;;;;4925616;29;20485;-70
2021/07/23 00:52:04;;;;;;;14.10;10.00;;;19.30;1.00;;;;;;4925757;29;20469;-70
2021/07/23 00:54:32;;;;;;;14.10;10.70;;;19.20;1.00;;;;;;4925994;29;20930;-71
2021/07/23 00:57:00;;;;;;;17.20;11.10;;;19.20;1.00;;;;;;4926432;29;20464;-70
2021/07/23 00:59:27;;;;;;;13.73;11.33;;;19.20;1.00;;;;;;4925374;29;20461;-71
2021/07/23 01:01:53;;;;;;;14.57;10.37;;;19.20;1.00;;;;;;4926511;29;20461;-71
2021/07/23 01:04:22;;;;;;;16.30;11.00;;;19.10;1.00;;;;;;4926029;29;20860;-71
2021/07/23 01:06:49;;;;;;;14.63;10.93;;;19.20;1.00;;;;;;4926803;29;20914;-70
2021/07/23 01:09:16;;;;;;;14.33;10.20;;;19.10;1.00;;;;;;4929941;29;20491;-70
2021/07/23 01:11:45;;;;;;;14.77;11.60;;;19.10;1.00;;;;;;4927049;29;20791;-70
2021/07/23 01:14:13;;;;;;;15.63;11.93;;;19.10;1.00;;;;;;4927152;29;20468;-70
2021/07/23 01:16:40;;;;;;;15.37;13.50;;;19.10;1.00;;;;;;4925013;29;20461;-70
2021/07/23 01:19:08;;;;;;;17.03;13.00;;;19.10;1.00;;;;;;4925534;29;20528;-70
2021/07/23 01:21:36;;;;;;;15.93;11.33;;;19.10;1.00;;;;;;4926253;29;20799;-70
2021/07/23 01:24:06;;;;;;;14.40;11.27;;;19.10;8.70;;;;;;4923827;29;20462;-70
2021/07/23 01:26:33;;;;;;;15.50;11.10;;;19.00;10.30;;;;;;4923374;29;20476;-71
2021/07/23 01:28:59;;;;;;;15.43;10.80;;;19.00;13.40;;;;;;4923027;29;20545;-70
2021/07/23 01:31:27;;;;;;;16.17;11.70;;;19.00;17.00;;;;;;4921445;29;20838;-71
2021/07/23 01:33:56;;;;;;;15.70;12.00;;;19.00;14.60;;;;;;4921510;29;20505;-69
2021/07/23 01:36:22;;;;;;;16.87;11.53;;;19.00;14.70;;;;;;4921973;29;20466;-70
2021/07/23 01:38:51;;;;;;;15.57;11.40;;;19.00;17.60;;;;;;4922232;29;20462;-71
2021/07/23 01:41:21;;;;;;;13.50;11.43;;;19.00;19.30;;;;;;4921302;29;20466;-71
2021/07/23 01:43:48;;;;;;;15.33;11.27;;;19.00;18.40;;;;;;4921524;29;20461;-71
2021/07/23 01:46:14;;;;;;;13.33;11.30;;;19.00;16.10;;;;;;4921567;29;20497;-71
2021/07/23 01:48:41;;;;;;;17.33;12.50;;;19.10;13.90;;;;;;4921315;29;20544;-71
2021/07/23 01:51:09;;;;;;;14.77;11.70;;;19.10;13.30;;;;;;4921094;29;20462;-71
2021/07/23 01:53:36;;;;;;;15.97;12.40;;;19.10;13.40;;;;;;4921445;29;20571;-71
2021/07/23 01:56:04;;;;;;;15.87;11.80;;;19.10;13.30;;;;;;4921272;29;20918;-71
2021/07/23 01:58:34;;;;;;;15.50;12.27;;;19.10;9.30;;;;;;4920931;29;20466;-71
2021/07/23 02:01:02;;;;;;;17.50;11.20;;;19.10;6.20;;;;;;4920995;29;20755;-71
2021/07/23 02:03:29;;;;;;;14.37;11.57;;;19.10;6.10;;;;;;4921249;29;20465;-71
2021/07/23 02:05:55;;;;;;;15.33;11.30;;;19.10;13.00;;;;;;4920820;29;20465;-71
2021/07/23 02:08:23;;;;;;;14.43;11.97;;;19.10;15.00;;;;;;4920364;29;20485;-71
2021/07/23 02:10:50;;;;;;;15.83;11.33;;;19.10;17.40;;;;;;4920462;29;20493;-71
2021/07/23 02:13:17;;;;;;;18.40;11.83;;;19.10;20.70;;;;;;4920145;29;20850;-71
2021/07/23 02:15:45;;;;;;;13.03;10.60;;;19.10;20.00;;;;;;4920629;29;20461;-71
2021/07/23 02:18:13;;;;;;;14.47;11.10;;;19.10;21.80;;;;;;4921256;29;20469;-71
2021/07/23 02:20:41;;;;;;;13.63;10.80;;;19.10;18.20;;;;;;4920481;29;20930;-71
2021/07/23 02:23:07;;;;;;;18.13;11.40;;;19.10;20.20;;;;;;4920090;29;20469;-71
2021/07/23 02:25:34;;;;;;;14.90;11.80;;;19.10;19.90;;;;;;4920280;29;20466;-71
2021/07/23 02:28:03;;;;;;;14.37;11.83;;;19.00;19.00;;;;;;4920891;29;20471;-71
2021/07/23 02:30:30;;;;;;;17.00;11.57;;;19.00;17.30;;;;;;4920467;29;20548;-71
2021/07/23 02:32:58;;;;;;;14.93;11.67;;;19.00;17.50;;;;;;4920244;29;20469;-71
2021/07/23 02:35:25;;;;;;;16.00;12.90;;;19.00;20.20;;;;;;4920391;29;20528;-71
2021/07/23 02:37:51;;;;;;;13.20;11.37;;;19.00;19.60;;;;;;4920054;29;20790;-71
2021/07/23 02:40:18;;;;;;;15.23;12.07;;;19.00;24.20;;;;;;4920247;29;20465;-71
2021/07/23 02:42:45;;;;;;;15.03;12.13;;;19.10;22.60;;;;;;4920165;29;20890;-71
2021/07/23 02:45:13;;;;;;;16.60;12.63;;;19.00;18.20;;;;;;4920581;29;20798;-71
2021/07/23 02:47:41;;;;;;;23.47;13.97;;;19.00;17.70;;;;;;4920508;29;20473;-71
2021/07/23 02:50:09;;;;;;;15.67;12.50;;;19.00;17.50;;;;;;4920268;29;20489;-71
2021/07/23 02:52:36;;;;;;;14.20;11.07;;;19.00;18.50;;;;;;4919953;29;20929;-71
2021/07/23 02:55:05;;;;;;;21.27;11.73;;;19.00;20.70;;;;;;4920192;29;20756;-70
2021/07/23 02:57:32;;;;;;;15.17;11.10;;;19.00;25.20;;;;;;4919807;29;20465;-70
2021/07/23 03:00:00;;;;;;;16.00;11.37;;;18.90;23.10;;;;;;4919820;29;20956;-71
2021/07/23 03:02:28;;;;;;;13.50;10.77;;;18.90;24.60;;;;;;4919845;29;20864;-71
2021/07/23 03:04:55;;;;;;;14.07;10.70;;;18.90;28.00;;;;;;4919449;29;20931;-70
2021/07/23 03:07:23;;;;;;;13.33;10.93;;;18.90;28.20;;;;;;4920316;29;20476;-71
2021/07/23 03:09:50;;;;;;;16.17;11.80;;;18.90;30.90;;;;;;4920270;29;20485;-71
2021/07/23 03:12:18;;;;;;;17.03;11.03;;;18.90;30.40;;;;;;4919853;29;20489;-70
2021/07/23 03:14:46;;;;;;;14.50;11.27;;;18.90;32.70;;;;;;4919684;29;20457;-70
2021/07/23 03:17:12;;;;;;;15.63;12.73;;;18.80;37.50;;;;;;4919708;29;20488;-70
2021/07/23 03:19:39;;;;;;;13.97;11.50;;;18.80;38.50;;;;;;4920129;29;20461;-71
2021/07/23 03:22:07;;;;;;;17.30;11.77;;;18.80;39.70;;;;;;4919577;29;20524;-71
2021/07/23 03:24:35;;;;;;;18.57;13.20;;;18.80;38.40;;;;;;4919366;29;20805;-71
2021/07/23 03:27:02;;;;;;;15.40;12.60;;;18.80;38.70;;;;;;4919537;29;20934;-70
2021/07/23 03:29:30;;;;;;;15.13;12.30;;;18.80;38.00;;;;;;4919548;29;20497;-70
2021/07/23 03:31:57;;;;;;;17.50;12.93;;;18.80;40.70;;;;;;4919250;29;20868;-70
2021/07/23 03:34:23;;;;;;;14.10;11.77;;;18.80;37.00;;;;;;4919842;29;20547;-71
2021/07/23 03:36:50;;;;;;;16.37;12.27;;;18.80;38.10;;;;;;4920324;29;20465;-71
2021/07/23 03:39:19;;;;;;;14.60;12.33;;;18.90;37.10;;;;;;4919819;29;20468;-71
2021/07/23 03:41:48;;;;;;;18.13;14.27;;;18.90;37.10;;;;;;4920031;29;20476;-71
2021/07/23 03:44:15;;;;;;;13.80;11.67;;;18.90;41.20;;;;;;4920611;29;20465;-70
2021/07/23 03:46:41;;;;;;;16.87;11.93;;;18.90;36.10;;;;;;4920069;29;20823;-70
2021/07/23 03:49:09;;;;;;;15.43;12.03;;;18.90;37.00;;;;;;4919192;29;20496;-70
2021/07/23 03:51:36;;;;;;;18.83;13.13;;;18.90;40.80;;;;;;4919086;29;20473;-70
2021/07/23 03:54:03;;;;;;;17.20;12.70;;;18.80;45.60;;;;;;4919345;29;20779;-71
2021/07/23 03:56:31;;;;;;;17.80;13.60;;;18.80;48.60;;;;;;4919517;29;20522;-71
2021/07/23 03:59:00;;;;;;;15.00;11.60;;;18.80;46.10;;;;;;4919830;29;20800;-70
2021/07/23 04:01:28;;;;;;;17.03;11.83;;;18.80;46.30;;;;;;4919382;29;20504;-70
2021/07/23 04:03:55;;;;;;;17.90;12.80;;;18.80;46.10;;;;;;4919420;29;20468;-71
2021/07/23 04:06:22;;;;;;;16.93;12.50;;;18.70;45.40;;;;;;4919308;29;20790;-70
2021/07/23 04:08:49;;;;;;;22.50;13.57;;;18.80;45.40;;;;;;4919140;29;20496;-70
2021/07/23 04:11:17;;;;;;;17.40;13.57;;;18.80;45.80;;;;;;4919034;29;20852;-70
2021/07/23 04:13:45;;;;;;;18.00;12.60;;;18.80;48.40;;;;;;4918981;29;20468;-70
2021/07/23 04:16:14;;;;;;;15.07;12.80;;;18.80;56.50;;;;;;4918818;29;20466;-70
2021/07/23 04:18:41;;;;;;;15.23;13.00;;;18.90;54.80;;;;;;4918617;29;20457;-70
2021/07/23 04:21:08;;;;;;;16.70;12.23;;;18.90;49.50;;;;;;4918751;29;20466;-70
2021/07/23 04:23:35;;;;;;;17.47;13.37;;;19.00;44.70;;;;;;4918810;29;20474;-69
2021/07/23 04:26:03;;;;;;;15.83;13.90;;;19.00;41.80;;;;;;4919334;29;20476;-70
2021/07/23 04:28:30;;;;;;;19.03;13.33;;;19.10;38.40;;;;;;4918648;29;20466;-70
2021/07/23 04:30:56;;;;;;;18.70;12.50;;;19.10;35.00;;;;;;4918998;29;20894;-70
2021/07/23 04:33:25;;;;;;;15.33;13.60;;;19.20;32.50;;;;;;4919488;29;20465;-70
2021/07/23 04:35:52;;;;;;;15.97;12.23;;;19.20;30.00;;;;;;4919094;29;20462;-70
2021/07/23 04:38:19;;;;;;;20.00;13.37;;;19.20;25.70;;;;;;4918909;29;20532;-70
2021/07/23 04:40:45;;;;;;;17.27;12.77;;;19.30;22.70;;;;;;4918827;29;20494;-70
2021/07/23 04:43:13;;;;;;;18.33;13.70;;;19.40;20.90;;;;;;4918488;29;20481;-70
2021/07/23 04:45:41;;;;;;;19.20;13.30;;;19.40;15.50;;;;;;4918588;29;20472;-70
2021/07/23 04:48:07;;;;;;;14.80;12.73;;;19.40;15.60;;;;;;4921360;29;20853;-70
2021/07/23 04:50:37;;;;;;;18.90;14.30;;;19.40;13.50;;;;;;4924071;29;20493;-69
2021/07/23 04:53:03;;;;;;;16.53;12.83;;;19.30;18.20;;;;;;4924042;29;20457;-69
2021/07/23 04:55:30;;;;;;;16.30;12.43;;;19.40;21.20;;;;;;4924283;29;20487;-69
2021/07/23 04:57:57;;;;;;;16.73;12.53;;;19.40;26.80;;;;;;4923071;29;20461;-69
2021/07/23 05:00:25;;;;;;;17.20;13.70;;;19.40;24.50;;;;;;4923213;29;20462;-69
2021/07/23 05:02:53;;;;;;;19.73;13.77;;;19.50;22.30;;;;;;4922662;29;20472;-70
2021/07/23 05:05:23;;;;;;;16.00;12.90;;;19.50;23.40;;;;;;4923099;29;20469;-71
2021/07/23 05:07:51;;;;;;;17.20;12.97;;;19.60;24.20;;;;;;4923214;29;20565;-69
2021/07/23 05:10:19;;;;;;;16.70;11.60;;;19.60;20.60;;;;;;4923999;29;20489;-69
2021/07/23 05:12:46;;;;;;;43.63;34.50;;;19.80;22.10;;;;;;4928189;29;20504;-69
2021/07/23 05:15:13;;;;;;;67.70;52.70;;;19.90;18.60;;;;;;4927898;29;20849;-71
2021/07/23 05:17:40;;;;;;;20.13;15.33;;;20.00;4.20;;;;;;4925119;29;20517;-69
2021/07/23 05:20:08;;;;;;;16.90;13.83;;;20.10;1.00;;;;;;4922823;29;20469;-70
2021/07/23 05:22:36;;;;;;;16.87;13.73;;;20.20;1.00;;;;;;4922880;29;20521;-70
2021/07/23 05:25:07;;;;;;;18.23;13.70;;;20.20;1.00;;;;;;4922340;29;20461;-70
2021/07/23 05:27:36;;;;;;;19.03;12.67;;;20.10;1.00;;;;;;4922807;29;20473;-70
2021/07/23 05:30:05;;;;;;;22.67;13.47;;;20.10;1.00;;;;;;4924218;29;20568;-70
2021/07/23 05:32:33;;;;;;;17.33;14.63;;;20.10;1.00;;;;;;4930252;29;20457;-70
2021/07/23 05:35:00;;;;;;;16.57;14.07;;;20.10;1.00;;;;;;4934712;29;20895;-70
2021/07/23 05:37:32;;;;;;;23.40;16.10;;;20.10;1.00;;;;;;4923471;29;20472;-70
2021/07/23 05:39:58;;;;;;;54.90;43.20;;;20.10;1.00;;;;;;4922318;29;20449;-70
2021/07/23 05:42:26;;;;;;;23.77;15.63;;;20.20;1.00;;;;;;4921765;29;20465;-70
2021/07/23 05:44:55;;;;;;;15.80;13.40;;;20.10;1.00;;;;;;4921578;29;20477;-70
2021/07/23 05:47:22;;;;;;;18.57;13.13;;;20.20;1.00;;;;;;4922094;29;20465;-70
2021/07/23 05:49:50;;;;;;;18.30;13.47;;;20.20;1.00;;;;;;4921473;29;20493;-70
2021/07/23 05:53:01;;;;;;;16.80;12.07;;;20.20;1.00;;;;;;4921013;29;20994;-69
2021/07/23 05:55:28;;;;;;;15.93;13.00;;;20.20;1.00;;;;;;4921159;29;20468;-69
2021/07/23 05:57:57;;;;;;;17.17;14.27;;;20.20;1.00;;;;;;4920599;29;20473;-71
2021/07/23 06:00:25;;;;;;;16.87;13.63;;;20.20;1.00;;;;;;4921937;29;20582;-70
2021/07/23 06:02:52;;;;;;;20.10;14.80;;;20.20;1.00;;;;;;4920825;29;20553;-70
2021/07/23 06:05:19;;;;;;;19.17;15.53;;;20.20;1.00;;;;;;4921455;29;20461;-70
2021/07/23 06:07:46;;;;;;;22.80;17.17;;;20.20;1.00;;;;;;4920828;29;20473;-71
2021/07/23 06:10:12;;;;;;;20.60;14.23;;;20.20;1.00;;;;;;4921005;29;20788;-70
2021/07/23 06:12:40;;;;;;;15.17;12.97;;;20.10;1.00;;;;;;4920570;29;20493;-70
2021/07/23 06:15:10;;;;;;;20.03;14.10;;;20.20;1.00;;;;;;4920700;29;20933;-69
2021/07/23 06:17:36;;;;;;;18.83;14.57;;;20.20;1.00;;;;;;4921170;29;20462;-69
2021/07/23 06:20:05;;;;;;;20.87;15.00;;;20.30;1.00;;;;;;4920962;29;20464;-69
2021/07/23 06:22:33;;;;;;;22.67;15.00;;;20.30;1.00;;;;;;4920983;29;20457;-68
2021/07/23 06:25:00;;;;;;;17.00;13.57;;;20.30;1.00;;;;;;4921118;29;20956;-68
2021/07/23 06:27:28;;;;;;;17.33;14.80;;;20.40;1.00;;;;;;4920549;29;20849;-71
2021/07/23 06:29:56;;;;;;;22.43;14.00;;;20.40;1.00;;;;;;4920179;29;20501;-69
2021/07/23 06:32:26;;;;;;;15.33;13.07;;;20.50;1.00;;;;;;4920469;29;20461;-69
2021/07/23 06:34:53;;;;;;;15.47;13.40;;;20.50;1.00;;;;;;4920569;29;20509;-70
2021/07/23 06:37:21;;;;;;;17.80;11.57;;;20.50;1.00;;;;;;4920266;29;20466;-70
2021/07/23 06:39:50;;;;;;;15.47;11.93;;;20.50;1.00;;;;;;4919955;29;20849;-69
2021/07/23 06:42:17;;;;;;;17.97;12.83;;;20.50;1.00;;;;;;4920499;29;20462;-69
2021/07/23 06:44:45;;;;;;;15.97;12.73;;;20.60;1.00;;;;;;4920312;29;20465;-69
2021/07/23 06:47:12;;;;;;;20.93;13.87;;;20.70;1.00;;;;;;4920496;29;20795;-69
2021/07/23 06:49:41;;;;;;;16.03;11.40;;;20.70;1.00;;;;;;4920526;29;20481;-71
2021/07/23 06:52:09;;;;;;;15.40;11.93;;;20.70;1.00;;;;;;4920954;29;20476;-68
2021/07/23 06:54:35;;;;;;;14.77;11.73;;;20.80;99.90;;;;;;4920809;29;20472;-69
2021/07/23 06:57:04;;;;;;;19.23;11.87;;;20.90;99.90;;;;;;4920281;29;20556;-69
2021/07/23 06:59:32;;;;;;;11.03;9.80;;;20.90;99.90;;;;;;4919607;29;20510;-69
2021/07/23 07:01:59;;;;;;;13.67;10.53;;;21.00;1.00;;;;;;4920299;29;20842;-69
2021/07/23 07:04:26;;;;;;;14.20;9.93;;;21.10;99.90;;;;;;4919945;29;20504;-69
2021/07/23 07:06:56;;;;;;;13.40;10.60;;;21.10;1.00;;;;;;4919832;29;20457;-70
2021/07/23 07:09:24;;;;;;;11.77;10.00;;;21.20;99.90;;;;;;4919100;29;20460;-69
2021/07/23 07:11:51;;;;;;;13.63;10.30;;;21.30;99.90;;;;;;4919689;29;20513;-70
2021/07/23 07:14:22;;;;;;;17.87;10.47;;;21.40;1.00;;;;;;4919809;29;20798;-70
2021/07/23 07:16:50;;;;;;;18.90;9.47;;;21.40;1.00;;;;;;4920046;29;20557;-70
2021/07/23 07:19:17;;;;;;;11.40;9.97;;;21.50;99.90;;;;;;4920006;29;20484;-69
2021/07/23 07:21:48;;;;;;;12.40;9.80;;;21.50;1.00;;;;;;4919629;29;20488;-70
2021/07/23 07:24:18;;;;;;;13.27;10.30;;;21.60;7.90;;;;;;4920382;29;20460;-69
2021/07/23 07:26:46;;;;;;;13.37;9.90;;;21.70;1.00;;;;;;4920082;29;20453;-69
2021/07/23 07:29:13;;;;;;;14.73;9.63;;;21.80;1.00;;;;;;4919606;29;20473;-70
2021/07/23 07:31:40;;;;;;;14.03;10.50;;;21.90;1.00;;;;;;4920571;29;20481;-69
2021/07/23 07:34:08;;;;;;;9.93;8.67;;;22.10;99.90;;;;;;4920045;29;20472;-70
2021/07/23 07:36:35;;;;;;;9.20;8.20;;;22.20;64.70;;;;;;4919518;29;20465;-70
2021/07/23 07:39:04;;;;;;;11.57;9.50;;;22.30;1.00;;;;;;4919411;29;20465;-69
2021/07/23 07:41:38;;;;;;;13.97;9.33;;;22.30;1.00;;;;;;4919706;29;20469;-69
2021/07/23 07:44:05;;;;;;;11.40;9.03;;;22.30;99.90;;;;;;4919649;29;20446;-70
2021/07/23 07:46:33;;;;;;;12.10;8.73;;;22.40;19.00;;;;;;4919213;29;20497;-69
2021/07/23 07:49:00;;;;;;;12.50;11.23;;;22.40;1.00;;;;;;4919277;29;20465;-69
2021/07/23 07:51:28;;;;;;;13.27;7.60;;;22.50;4.20;;;;;;4919726;29;20843;-70
2021/07/23 07:53:54;;;;;;;9.77;8.50;;;22.60;84.90;;;;;;4919244;29;20465;-68
2021/07/23 07:56:21;;;;;;;10.40;8.20;;;22.60;1.00;;;;;;4919636;29;20524;-69
2021/07/23 07:58:49;;;;;;;10.37;8.10;;;22.70;99.90;;;;;;4918876;29;20465;-70
2021/07/23 08:01:16;;;;;;;9.73;8.30;;;22.80;1.00;;;;;;4919543;29;20525;-69
2021/07/23 08:03:42;;;;;;;9.47;7.70;;;23.00;99.90;;;;;;4919345;29;20461;-70
2021/07/23 08:06:19;;;;;;;9.07;8.17;;;23.20;99.90;;;;;;4919944;29;20480;-70
2021/07/23 08:08:47;;;;;;;7.30;6.60;;;23.30;1.00;;;;;;4919136;29;20446;-69
2021/07/23 08:11:13;;;;;;;11.20;8.07;;;23.50;1.00;;;;;;4918995;29;20496;-69
2021/07/23 08:13:40;;;;;;;10.80;8.47;;;23.70;99.90;;;;;;4919985;29;20449;-70
2021/07/23 08:16:09;;;;;;;8.47;7.07;;;23.70;99.90;;;;;;4920066;29;20461;-69
2021/07/23 08:18:36;;;;;;;8.83;6.93;;;23.70;99.90;;;;;;4922547;29;20795;-69
2021/07/23 08:21:03;;;;;;;7.67;6.30;;;23.60;99.90;;;;;;4927015;29;20603;-70
2021/07/23 08:23:50;;;;;;;10.00;6.47;;;23.60;99.90;;;;;;4926014;29;20469;-69
2021/07/23 08:26:17;;;;;;;7.97;6.87;;;23.60;99.90;;;;;;4927316;29;20461;-70
2021/07/23 08:28:49;;;;;;;9.07;6.50;;;23.60;99.90;;;;;;4931005;29;20465;-69
2021/07/23 08:31:17;;;;;;;12.43;7.73;;;23.70;99.90;;;;;;4926177;29;20501;-69
2021/07/23 08:33:45;;;;;;;6.77;6.00;;;23.70;99.90;;;;;;4922822;29;21019;-69
2021/07/23 08:36:13;;;;;;;7.40;6.37;;;23.80;99.90;;;;;;4922942;29;20468;-70
2021/07/23 08:38:40;;;;;;;7.50;6.30;;;23.90;99.90;;;;;;4923043;29;20457;-69
2021/07/23 08:41:06;;;;;;;12.50;6.37;;;24.00;99.90;;;;;;4922701;29;20465;-69
2021/07/23 08:43:33;;;;;;;7.37;6.63;;;24.10;99.90;;;;;;4922440;29;20478;-70
2021/07/23 08:46:00;;;;;;;7.63;6.80;;;24.20;99.90;;;;;;4922625;29;20458;-69
2021/07/23 08:48:28;;;;;;;7.00;6.30;;;24.20;99.90;;;;;;4922284;29;20465;-69
2021/07/23 08:50:55;;;;;;;8.80;6.10;;;24.30;99.90;;;;;;4922214;29;20953;-69
2021/07/23 08:53:21;;;;;;;6.30;5.70;;;24.40;99.90;;;;;;4922501;29;20487;-68
2021/07/23 08:55:50;;;;;;;9.50;6.50;;;24.40;99.90;;;;;;4922897;29;20457;-69
2021/07/23 08:58:18;;;;;;;7.30;6.40;;;24.40;99.90;;;;;;4922521;29;20524;-70
2021/07/23 09:00:46;;;;;;;7.40;6.70;;;24.40;99.90;;;;;;4923475;29;20468;-69
2021/07/23 09:03:14;;;;;;;7.73;6.97;;;24.30;99.90;;;;;;4923699;29;20926;-68
2021/07/23 09:05:45;;;;;;;6.77;6.17;;;24.10;99.90;;;;;;4922319;29;20898;-68
2021/07/23 09:08:13;;;;;;;7.13;6.43;;;24.00;99.90;;;;;;4922416;29;20521;-70
2021/07/23 09:10:40;;;;;;;9.03;6.90;;;23.90;99.90;;;;;;4921704;29;20496;-70
2021/07/23 09:13:08;;;;;;;7.97;6.10;;;23.80;99.90;;;;;;4921341;29;20489;-70
2021/07/23 09:15:38;;;;;;;6.70;6.10;;;23.70;99.90;;;;;;4922278;29;20505;-69
2021/07/23 09:18:06;;;;;;;7.23;6.60;;;23.50;99.90;;;;;;4923819;29;20465;-68
2021/07/23 09:20:36;;;;;;;8.40;6.30;;;23.50;99.90;;;;;;4924848;29;20458;-68
2021/07/23 09:23:29;;;;;;;7.23;6.40;;;23.50;99.90;;;;;;4928336;29;20508;-69
2021/07/23 09:25:57;;;;;;;7.40;6.33;;;23.60;99.90;;;;;;4927448;29;20474;-70
2021/07/23 09:28:34;;;;;;;6.80;6.30;;;23.70;99.90;;;;;;4926725;29;20556;-69
2021/07/23 09:31:02;;;;;;;7.30;6.30;;;23.90;99.90;;;;;;4923891;29;20473;-69
2021/07/23 09:33:34;;;;;;;7.13;6.53;;;24.00;99.90;;;;;;4921335;29;20465;-70
2021/07/23 09:36:03;;;;;;;10.60;7.70;;;24.00;99.90;;;;;;4922720;29;20746;-69
2021/07/23 09:38:46;;;;;;;8.37;7.27;;;24.00;99.90;;;;;;4921933;29;20461;-69
2021/07/23 09:41:25;;;;;;;7.83;6.70;;;24.00;99.90;;;;;;4923201;29;20556;-70
2021/07/23 09:43:58;;;;;;;8.00;6.87;;;24.10;99.90;;;;;;4923453;29;20473;-69
2021/07/23 09:46:30;;;;;;;9.97;7.40;;;24.10;99.90;;;;;;4924657;29;20457;-69
2021/07/23 09:49:01;;;;;;;9.27;7.80;;;24.10;99.90;;;;;;4925285;29;20450;-69
2021/07/23 09:51:28;;;;;;;12.50;8.60;;;24.10;99.90;;;;;;4923947;29;20484;-70
2021/07/23 09:53:59;;;;;;;8.20;7.40;;;24.00;99.90;;;;;;4923790;29;20461;-70
2021/07/23 09:56:27;;;;;;;21.40;18.27;;;24.00;99.90;;;;;;4923559;29;20534;-69
2021/07/23 09:59:01;;;;;;;10.10;8.63;;;24.00;99.90;;;;;;4925454;29;20873;-69
2021/07/23 10:01:30;;;;;;;8.57;7.63;;;24.00;99.90;;;;;;4926497;29;20438;-70
2021/07/23 10:04:00;;;;;;;8.30;7.60;;;24.00;99.90;;;;;;4924074;29;20467;-70
2021/07/23 10:06:30;;;;;;;8.60;7.50;;;24.00;99.90;;;;;;4922621;29;20789;-70
2021/07/23 10:09:06;;;;;;;9.13;7.97;;;24.00;99.90;;;;;;4922609;29;20477;-70
2021/07/23 10:11:33;;;;;;;9.80;8.10;;;24.10;99.90;;;;;;4921944;29;20600;-70
2021/07/23 10:14:02;;;;;;;9.90;7.53;;;24.20;99.90;;;;;;4921372;29;20453;-70
2021/07/23 10:16:33;;;;;;;9.47;8.43;;;24.20;99.90;;;;;;4922264;29;20899;-69
2021/07/23 10:19:02;;;;;;;10.17;8.67;;;24.20;99.90;;;;;;4922226;29;20584;-70
2021/07/23 10:21:29;;;;;;;9.30;8.40;;;24.10;99.90;;;;;;4922353;29;20544;-69
2021/07/23 10:24:00;;;;;;;10.67;7.87;;;24.00;99.90;;;;;;4922394;29;20462;-70
2021/07/23 10:26:29;;;;;;;11.50;7.60;;;23.90;99.90;;;;;;4921040;29;20450;-69
2021/07/23 10:28:58;;;;;;;11.03;8.37;;;24.00;99.90;;;;;;4920616;29;20552;-70
2021/07/23 10:31:46;;;;;;;9.57;7.40;;;24.10;99.90;;;;;;4921733;29;20855;-71
2021/07/23 10:34:32;;;;;;;10.00;8.30;;;24.20;99.90;;;;;;4917318;29;20528;-71
2021/07/23 10:37:00;;;;;;;8.50;7.60;;;24.40;99.90;;;;;;4919993;29;20465;-69
2021/07/23 10:39:28;;;;;;;9.47;8.47;;;24.50;99.90;;;;;;4920620;29;20472;-69
2021/07/23 10:42:32;;;;;;;9.73;8.23;;;24.70;99.90;;;;;;4920364;29;20754;-69
2021/07/23 10:44:58;;;;;;;10.17;8.43;;;24.80;99.90;;;;;;4919933;29;20442;-69
2021/07/23 10:47:48;;;;;;;10.53;9.13;;;24.80;99.90;;;;;;4920845;29;20492;-70
2021/07/23 10:50:51;;;;;;;12.00;8.03;;;24.70;99.90;;;;;;4917463;29;20481;-69
2021/07/23 10:53:34;;;;;;;12.50;9.03;;;24.50;99.90;;;;;;4920092;29;20437;-70
2021/07/23 10:56:02;;;;;;;12.83;8.33;;;24.30;99.90;;;;;;4920079;29;20457;-70
2021/07/23 10:58:37;;;;;;;9.27;8.33;;;24.20;99.90;;;;;;4920630;29;20469;-69
2021/07/23 11:01:05;;;;;;;10.03;8.97;;;24.30;99.90;;;;;;4920217;29;20452;-70
2021/07/23 11:04:01;;;;;;;9.47;8.57;;;24.40;99.90;;;;;;4919800;29;20466;-70
2021/07/23 11:06:33;;;;;;;9.00;8.13;;;24.40;99.90;;;;;;4920503;29;20456;-70
2021/07/23 11:09:07;;;;;;;9.00;8.10;;;24.50;99.90;;;;;;4920329;29;20545;-70
2021/07/23 11:11:35;;;;;;;10.00;8.57;;;24.50;99.90;;;;;;4920131;29;20508;-70
2021/07/23 11:14:18;;;;;;;8.10;7.30;;;24.60;99.90;;;;;;4920124;29;20465;-70
2021/07/23 11:16:45;;;;;;;9.33;8.30;;;24.70;99.90;;;;;;4918133;29;20472;-70
2021/07/23 11:19:23;;;;;;;9.23;8.33;;;24.70;99.90;;;;;;4920201;29;20457;-70
2021/07/23 11:21:50;;;;;;;11.20;8.40;;;24.70;99.90;;;;;;4920461;29;20465;-70
2021/07/23 11:24:17;;;;;;;8.30;7.50;;;24.70;99.90;;;;;;4919648;29;20917;-70
2021/07/23 11:26:54;;;;;;;11.03;9.27;;;24.70;99.90;;;;;;4920097;29;20457;-70
2021/07/23 11:29:32;;;;;;;9.47;8.37;;;24.80;99.90;;;;;;4919247;29;20453;-70
2021/07/23 11:32:07;;;;;;;8.70;7.43;;;25.20;99.90;;;;;;4919876;29;20512;-70
2021/07/23 11:34:37;;;;;;;7.53;6.83;;;26.00;99.90;;;;;;4919662;29;20455;-70
2021/07/23 11:37:14;;;;;;;8.00;7.30;;;26.60;99.90;;;;;;4919578;29;20552;-70
2021/07/23 11:39:52;;;;;;;10.00;8.33;;;27.00;99.90;;;;;;4920529;29;20826;-68
2021/07/23 11:42:21;;;;;;;9.73;8.40;;;26.90;99.90;;;;;;4919588;29;20457;-69
2021/07/23 11:44:52;;;;;;;8.77;7.87;;;26.40;99.90;;;;;;4920132;29;20473;-68
2021/07/23 11:47:27;;;;;;;12.10;6.90;;;26.20;99.90;;;;;;4919143;29;20480;-70
2021/07/23 11:49:58;;;;;;;8.47;7.30;;;26.40;99.90;;;;;;4918924;29;20850;-69
2021/07/23 11:52:26;;;;;;;8.70;6.67;;;27.10;99.90;;;;;;4919937;29;20540;-70
2021/07/23 11:54:58;;;;;;;7.57;6.73;;;27.80;99.90;;;;;;4919145;29;20465;-70
2021/07/23 11:57:26;;;;;;;7.20;6.50;;;28.20;99.90;;;;;;4919158;29;20492;-70
2021/07/23 11:59:53;;;;;;;7.43;6.80;;;28.50;99.90;;;;;;4918986;29;20472;-70
2021/07/23 12:02:25;;;;;;;15.93;14.17;;;28.70;99.90;;;;;;4919846;29;20468;-70
2021/07/23 12:05:08;;;;;;;9.10;8.23;;;28.80;99.90;;;;;;4919308;29;20461;-70
2021/07/23 12:07:36;;;;;;;10.07;7.30;;;29.00;99.90;;;;;;4916941;29;20461;-70
2021/07/23 12:10:06;;;;;;;8.80;7.13;;;29.40;99.90;;;;;;4919243;29;20453;-70
2021/07/23 12:12:36;;;;;;;7.90;6.70;;;29.50;99.90;;;;;;4918415;29;20485;-70
2021/07/23 12:15:08;;;;;;;9.73;6.90;;;29.50;99.90;;;;;;4918720;29;20453;-70
2021/07/23 12:17:36;;;;;;;7.90;7.03;;;29.20;99.90;;;;;;4919528;29;20445;-70
2021/07/23 12:20:03;;;;;;;8.60;7.13;;;28.70;99.90;;;;;;4919176;29;20500;-69
2021/07/23 12:22:31;;;;;;;8.87;8.00;;;28.10;99.90;;;;;;4918440;29;20930;-69
2021/07/23 12:24:58;;;;;;;8.17;7.37;;;27.50;99.90;;;;;;4918486;29;20469;-69
2021/07/23 12:27:25;;;;;;;8.90;7.33;;;27.20;99.90;;;;;;4918777;29;20462;-69
2021/07/23 12:29:57;;;;;;;7.67;6.93;;;27.40;99.90;;;;;;4920482;29;20476;-69
2021/07/23 12:32:26;;;;;;;8.90;7.90;;;27.90;99.90;;;;;;4920521;29;20484;-72
2021/07/23 12:34:56;;;;;;;11.20;7.20;;;28.60;99.90;;;;;;4921210;29;20470;-71
2021/07/23 12:37:25;;;;;;;7.37;6.67;;;29.00;99.90;;;;;;4919805;29;20465;-72
2021/07/23 12:39:56;;;;;;;7.77;6.87;;;29.30;99.90;;;;;;4920528;29;20469;-70
2021/07/23 12:42:24;;;;;;;9.53;7.10;;;29.50;99.90;;;;;;4919428;29;20852;-73
2021/07/23 12:44:51;;;;;;;9.13;6.50;;;29.70;99.90;;;;;;4919739;29;20461;-72
2021/07/23 12:47:24;;;;;;;7.77;6.70;;;30.10;99.90;;;;;;4918678;29;20806;-71